createdAt,value
2023-10-14T00:02:22.458Z,830.73
2023-10-14T00:04:54.695Z,682.33
2023-10-14T00:07:26.512Z,773.60
2023-10-14T00:09:58.907Z,785.90
2023-10-14T00:12:29.844Z,714.20
2023-10-14T00:15:05.418Z,945.90
2023-10-14T00:17:38.656Z,869.27
2023-10-14T00:20:10.506Z,665.33
2023-10-14T00:22:40.976Z,643.93
2023-10-14T00:25:20.430Z,660.93
2023-10-14T00:27:51.880Z,487.20
2023-10-14T00:30:22.028Z,536.00
2023-10-14T00:32:53.200Z,678.43
2023-10-14T00:35:24.289Z,794.27
2023-10-14T00:37:54.544Z,821.20
2023-10-14T00:40:24.739Z,785.27
2023-10-14T00:42:56.877Z,718.73
2023-10-14T00:45:27.556Z,774.40
2023-10-14T00:48:01.104Z,928.63
2023-10-14T00:50:34.982Z,861.27
2023-10-14T00:53:07.157Z,859.47
2023-10-14T00:55:46.770Z,801.00
2023-10-14T00:58:22.031Z,827.43
2023-10-14T01:01:01.834Z,686.87
2023-10-14T01:03:33.608Z,642.30
2023-10-14T01:06:16.328Z,690.30
2023-10-14T01:08:50.497Z,709.40
2023-10-14T01:11:21.359Z,727.73
2023-10-14T01:13:52.672Z,723.23
2023-10-14T01:16:26.146Z,707.63
2023-10-14T01:18:57.654Z,696.40
2023-10-14T01:21:29.702Z,725.57
2023-10-14T01:24:01.052Z,645.27
2023-10-14T01:26:34.539Z,742.23
2023-10-14T01:29:08.236Z,718.47
2023-10-14T01:32:08.181Z,706.90
2023-10-14T01:34:43.426Z,659.93
2023-10-14T01:37:20.121Z,680.83
2023-10-14T01:39:58.045Z,587.43
2023-10-14T01:42:31.182Z,717.53
2023-10-14T01:45:08.641Z,768.53
2023-10-14T01:47:44.932Z,715.27
2023-10-14T01:50:15.356Z,750.70
2023-10-14T01:52:45.274Z,714.07
2023-10-14T01:55:20.428Z,799.20
2023-10-14T01:57:50.815Z,807.77
2023-10-14T02:00:26.751Z,781.07
2023-10-14T02:03:03.894Z,693.40
2023-10-14T02:05:35.756Z,690.07
2023-10-14T02:08:06.271Z,719.80
2023-10-14T02:10:37.472Z,684.00
2023-10-14T02:13:09.095Z,643.40
2023-10-14T02:15:39.562Z,636.83
2023-10-14T02:18:09.485Z,682.17
2023-10-14T02:20:51.389Z,718.93
2023-10-14T02:23:22.764Z,642.93
2023-10-14T02:25:58.070Z,658.50
2023-10-14T02:28:41.138Z,608.00
2023-10-14T02:31:18.293Z,565.33
2023-10-14T02:33:49.236Z,643.90
2023-10-14T02:36:19.585Z,739.30
2023-10-14T02:38:54.411Z,714.03
2023-10-14T02:41:30.229Z,708.40
2023-10-14T02:44:19.676Z,677.73
2023-10-14T02:46:56.015Z,666.40
2023-10-14T02:49:26.704Z,706.70
2023-10-14T02:52:02.391Z,702.83
2023-10-14T02:54:35.620Z,591.60
2023-10-14T02:57:14.827Z,467.13
2023-10-14T02:59:49.412Z,313.10
2023-10-14T03:02:26.726Z,317.67
2023-10-14T03:05:09.893Z,479.73
2023-10-14T03:07:49.448Z,508.87
2023-10-14T03:10:29.674Z,298.67
2023-10-14T03:13:01.799Z,342.97
2023-10-14T03:15:33.521Z,542.57
2023-10-14T03:18:03.522Z,590.77
2023-10-14T03:20:37.962Z,747.07
2023-10-14T03:23:12.574Z,740.53
2023-10-14T03:25:43.397Z,623.83
2023-10-14T03:28:15.958Z,701.73
2023-10-14T03:30:49.000Z,645.00
2023-10-14T03:33:21.128Z,623.13
2023-10-14T03:35:58.365Z,636.23
2023-10-14T03:38:40.808Z,688.93
2023-10-14T03:41:19.701Z,718.50
2023-10-14T03:44:00.823Z,640.63
2023-10-14T03:46:34.295Z,618.37
2023-10-14T03:49:12.817Z,528.17
2023-10-14T03:51:44.006Z,619.07
2023-10-14T03:54:21.010Z,597.70
2023-10-14T03:56:51.837Z,630.63
2023-10-14T03:59:25.034Z,667.80
2023-10-14T04:02:00.410Z,748.93
2023-10-14T04:04:31.616Z,684.33
2023-10-14T04:07:17.373Z,791.73
2023-10-14T04:09:52.384Z,690.17
2023-10-14T04:12:37.576Z,703.77
2023-10-14T04:15:34.648Z,643.63
2023-10-14T04:18:13.394Z,631.10
2023-10-14T04:20:47.692Z,625.07
2023-10-14T04:23:32.121Z,636.10
2023-10-14T04:26:12.972Z,647.17
2023-10-14T04:28:54.295Z,635.33
2023-10-14T04:31:40.116Z,396.83
2023-10-14T04:34:11.726Z,257.97
2023-10-14T04:36:55.093Z,39.23
2023-10-14T04:39:34.788Z,8.43
2023-10-14T04:42:21.560Z,5.37
2023-10-14T04:45:00.222Z,5.77
2023-10-14T04:47:38.087Z,39.77
2023-10-14T04:50:14.692Z,91.13
2023-10-14T04:52:49.701Z,121.90
2023-10-14T04:55:30.237Z,168.90
2023-10-14T04:58:13.683Z,175.23
2023-10-14T05:00:46.478Z,211.67
2023-10-14T05:03:22.177Z,212.87
2023-10-14T05:05:56.459Z,166.67
2023-10-14T05:08:29.011Z,173.00
2023-10-14T05:11:01.881Z,85.13
2023-10-14T05:13:46.702Z,64.57
2023-10-14T05:16:23.024Z,163.17
2023-10-14T05:19:25.203Z,70.03
2023-10-14T05:22:01.857Z,128.97
2023-10-14T05:24:37.682Z,256.53
2023-10-14T05:28:36.303Z,357.73
2023-10-14T05:32:23.853Z,284.73
2023-10-14T05:35:17.397Z,448.60
2023-10-14T05:38:20.175Z,457.93
2023-10-14T05:40:57.986Z,674.40
2023-10-14T05:43:28.943Z,773.70
2023-10-14T05:46:22.639Z,817.80
2023-10-14T05:48:54.318Z,735.30
2023-10-14T05:52:06.838Z,787.27
2023-10-14T05:58:44.557Z,629.87
2023-10-14T06:01:22.058Z,693.73
2023-10-14T06:04:03.211Z,273.83
2023-10-14T06:06:51.906Z,275.63
2023-10-14T06:09:22.844Z,400.40
2023-10-14T06:11:54.957Z,299.27
2023-10-14T06:14:26.315Z,98.40
2023-10-14T06:16:59.403Z,48.13
2023-10-14T06:19:32.110Z,129.03
2023-10-14T06:22:02.384Z,306.40
2023-10-14T06:24:32.137Z,473.53
2023-10-14T06:27:10.002Z,549.23
2023-10-14T06:30:00.947Z,92.13
2023-10-14T06:32:43.086Z,56.60
2023-10-14T06:35:21.192Z,220.60
2023-10-14T06:38:49.707Z,88.10
2023-10-14T06:41:41.158Z,73.63
2023-10-14T06:44:16.359Z,236.30
2023-10-14T06:46:46.986Z,385.10
2023-10-14T06:49:36.598Z,154.40
2023-10-14T06:52:29.139Z,158.47
2023-10-14T06:55:01.659Z,248.43
2023-10-14T06:57:31.992Z,133.67
2023-10-14T07:00:09.077Z,43.53
2023-10-14T07:02:39.469Z,12.43
2023-10-14T07:05:11.740Z,193.67
2023-10-14T07:07:43.308Z,204.53
2023-10-14T07:10:13.461Z,540.10
2023-10-14T07:12:44.926Z,772.20
2023-10-14T07:15:16.356Z,22.83
2023-10-14T07:17:49.648Z,9.73
2023-10-14T07:20:19.648Z,8.27
2023-10-14T07:22:50.812Z,9.97
2023-10-14T07:25:20.665Z,7.87
2023-10-14T07:27:52.712Z,10.13
2023-10-14T07:30:27.959Z,112.53
2023-10-14T07:32:59.394Z,261.70
2023-10-14T07:35:32.491Z,805.10
2023-10-14T07:38:02.487Z,276.30
2023-10-14T07:40:34.967Z,423.93
2023-10-14T07:43:08.577Z,732.23
2023-10-14T07:45:43.953Z,682.03
2023-10-14T07:49:00.728Z,627.40
2023-10-14T07:52:17.416Z,492.27
2023-10-14T07:54:47.511Z,240.90
2023-10-14T07:57:18.497Z,36.17
2023-10-14T07:59:51.847Z,108.20
2023-10-14T08:06:19.226Z,90.10
2023-10-14T08:08:59.170Z,70.37
2023-10-14T08:12:21.431Z,257.03
2023-10-14T08:16:01.360Z,131.97
2023-10-14T08:18:33.417Z,194.27
2023-10-14T08:21:04.617Z,462.03
2023-10-14T08:23:34.531Z,447.03
2023-10-14T08:26:04.648Z,465.30
2023-10-14T08:28:35.083Z,448.93
2023-10-14T08:31:09.065Z,618.13
2023-10-14T08:33:41.323Z,532.93
2023-10-14T08:36:12.922Z,651.20
2023-10-14T08:38:45.070Z,404.27
2023-10-14T08:41:16.208Z,552.43
2023-10-14T08:43:50.662Z,586.00
2023-10-14T08:46:25.000Z,580.03
2023-10-14T08:48:58.230Z,680.17
2023-10-14T08:51:43.244Z,685.63
2023-10-14T08:54:25.080Z,658.27
2023-10-14T08:56:55.685Z,555.57
2023-10-14T08:59:26.428Z,591.67
2023-10-14T09:01:58.868Z,660.70
2023-10-14T09:04:32.008Z,712.30
2023-10-14T09:07:03.156Z,627.63
2023-10-14T09:09:34.433Z,582.80
2023-10-14T09:12:12.257Z,669.03
2023-10-14T09:14:43.949Z,617.77
2023-10-14T09:17:16.875Z,655.43
2023-10-14T09:19:50.413Z,246.43
2023-10-14T09:22:22.336Z,169.07
2023-10-14T09:24:53.467Z,93.73
2023-10-14T09:27:23.757Z,67.57
2023-10-14T09:29:54.396Z,20.27
2023-10-14T09:32:24.250Z,23.20
2023-10-14T09:34:56.467Z,24.03
2023-10-14T09:37:27.490Z,19.30
2023-10-14T09:40:07.410Z,23.90
2023-10-14T09:42:39.716Z,22.97
2023-10-14T09:45:13.096Z,30.30
2023-10-14T09:47:47.047Z,23.83
2023-10-14T09:50:19.568Z,26.83
2023-10-14T09:52:50.099Z,31.77
2023-10-14T09:55:22.438Z,16.67
2023-10-14T09:57:54.061Z,59.47
2023-10-14T10:00:25.248Z,11.13
2023-10-14T10:02:57.100Z,15.63
2023-10-14T10:05:37.294Z,23.00
2023-10-14T10:08:25.799Z,14.97
2023-10-14T10:10:57.009Z,10.53
2023-10-14T10:13:29.485Z,9.23
2023-10-14T10:16:05.993Z,10.30
2023-10-14T10:18:53.969Z,11.70
2023-10-14T10:21:30.872Z,8.90
2023-10-14T10:24:19.892Z,8.70
2023-10-14T10:27:00.219Z,4.53
2023-10-14T10:29:30.823Z,3.00
2023-10-14T10:32:08.195Z,3.20
2023-10-14T10:35:17.670Z,5.87
2023-10-14T10:37:53.464Z,3.50
2023-10-14T10:40:27.196Z,3.80
2023-10-14T10:43:00.218Z,3.73
2023-10-14T10:45:34.336Z,6.77
2023-10-14T10:48:07.749Z,7.67
2023-10-14T10:50:39.335Z,4.50
2023-10-14T10:53:19.979Z,6.43
2023-10-14T10:55:52.922Z,5.77
2023-10-14T10:58:23.457Z,5.57
2023-10-14T11:00:55.227Z,9.30
2023-10-14T11:03:25.957Z,3.17
2023-10-14T11:05:57.699Z,3.50
2023-10-14T11:08:29.529Z,6.23
2023-10-14T11:11:02.349Z,8.43
2023-10-14T11:13:33.087Z,3.47
2023-10-14T11:16:13.121Z,3.43
2023-10-14T11:18:48.643Z,3.73
2023-10-14T11:21:20.099Z,6.07
2023-10-14T11:23:54.230Z,3.97
2023-10-14T11:26:25.581Z,3.40
2023-10-14T11:28:56.195Z,4.87
2023-10-14T11:31:26.661Z,2.43
2023-10-14T11:34:02.494Z,3.20
2023-10-14T11:36:32.781Z,11.10
2023-10-14T11:39:13.863Z,11.17
2023-10-14T11:41:44.073Z,9.13
2023-10-14T11:44:18.628Z,3.53
2023-10-14T11:46:49.181Z,3.60
2023-10-14T11:49:20.063Z,3.47
2023-10-14T11:51:50.042Z,3.37
2023-10-14T11:54:24.823Z,3.30
2023-10-14T11:56:54.952Z,3.03
2023-10-14T11:59:26.436Z,2.50
2023-10-14T12:02:00.285Z,3.07
2023-10-14T12:04:30.786Z,2.37
2023-10-14T12:07:04.371Z,2.63
2023-10-14T12:09:36.213Z,3.30
2023-10-14T12:12:06.795Z,3.57
2023-10-14T12:14:38.665Z,2.83
2023-10-14T12:17:09.096Z,2.90
2023-10-14T12:19:42.097Z,3.27
2023-10-14T12:22:12.504Z,3.20
2023-10-14T12:24:44.275Z,3.27
2023-10-14T12:27:16.128Z,3.40
2023-10-14T12:29:46.988Z,3.00
2023-10-14T12:32:19.716Z,3.45
2023-10-14T12:34:50.503Z,3.50
2023-10-14T12:37:22.237Z,8.07
2023-10-14T12:39:56.968Z,10.20
2023-10-14T12:42:46.069Z,17.13
2023-10-14T12:45:24.028Z,13.67
2023-10-14T12:47:57.487Z,17.73
2023-10-14T12:50:27.725Z,24.00
2023-10-14T12:53:00.523Z,10.93
2023-10-14T12:55:32.851Z,33.50
2023-10-14T12:58:03.791Z,40.90
2023-10-14T13:00:34.210Z,46.77
2023-10-14T13:03:10.453Z,69.63
2023-10-14T13:05:42.133Z,96.97
2023-10-14T13:08:12.567Z,69.30
2023-10-14T13:10:45.014Z,45.73
2023-10-14T13:13:16.491Z,36.97
2023-10-14T13:15:48.986Z,23.33
2023-10-14T13:18:19.315Z,15.50
2023-10-14T13:20:51.335Z,10.80
2023-10-14T13:23:22.960Z,7.80
2023-10-14T13:25:57.476Z,16.93
2023-10-14T13:28:27.849Z,12.20
2023-10-14T13:30:59.449Z,34.53
2023-10-14T13:33:29.993Z,23.77
2023-10-14T13:36:00.335Z,11.67
2023-10-14T13:38:30.185Z,15.70
2023-10-14T13:41:04.445Z,5.00
2023-10-14T13:43:35.029Z,4.80
2023-10-14T13:46:05.722Z,5.97
2023-10-14T13:48:36.301Z,5.00
2023-10-14T13:51:06.227Z,4.03
2023-10-14T13:53:36.732Z,4.93
2023-10-14T13:56:11.598Z,6.67
2023-10-14T13:58:41.976Z,6.60
2023-10-14T14:01:12.961Z,18.83
2023-10-14T14:03:43.260Z,40.07
2023-10-14T14:06:13.131Z,52.37
2023-10-14T14:08:42.976Z,76.20
2023-10-14T14:11:14.448Z,66.23
2023-10-14T14:13:44.764Z,62.30
2023-10-14T14:16:15.106Z,61.27
2023-10-14T14:18:49.940Z,95.40
2023-10-14T14:21:21.892Z,58.57
2023-10-14T14:23:53.378Z,64.20
2023-10-14T14:26:24.694Z,66.13
2023-10-14T14:28:58.578Z,52.60
2023-10-14T14:31:30.249Z,45.13
2023-10-14T14:34:01.189Z,47.13
2023-10-14T14:36:31.451Z,111.67
2023-10-14T14:39:03.286Z,153.90
2023-10-14T14:41:37.625Z,144.07
2023-10-14T14:44:09.985Z,117.73
2023-10-14T14:46:40.608Z,80.30
2023-10-14T14:49:13.742Z,188.03
2023-10-14T14:51:44.736Z,123.93
2023-10-14T14:54:16.392Z,178.70
2023-10-14T14:56:47.789Z,199.83
2023-10-14T14:59:18.065Z,190.37
2023-10-14T15:01:48.179Z,241.73
2023-10-14T15:04:18.284Z,217.27
2023-10-14T15:06:49.311Z,277.97
2023-10-14T15:09:21.598Z,291.03
2023-10-14T15:11:53.017Z,208.67
2023-10-14T15:14:23.394Z,228.73
2023-10-14T15:16:53.760Z,372.73
2023-10-14T15:19:24.116Z,248.90
2023-10-14T15:21:54.204Z,178.97
2023-10-14T15:24:24.625Z,271.27
2023-10-14T15:26:56.132Z,249.57
2023-10-14T15:29:27.081Z,368.40
2023-10-14T15:31:58.525Z,310.20
2023-10-14T15:34:29.402Z,331.70
2023-10-14T15:36:59.680Z,301.83
2023-10-14T15:39:32.768Z,277.07
2023-10-14T15:42:06.239Z,731.30
2023-10-14T15:44:37.859Z,397.73
2023-10-14T15:47:08.395Z,593.50
2023-10-14T15:49:44.031Z,999.90
2023-10-14T15:52:14.071Z,729.40
2023-10-14T15:54:48.392Z,907.10
2023-10-14T15:57:21.386Z,902.80
2023-10-14T15:59:51.970Z,731.67
2023-10-14T16:02:22.052Z,872.27
2023-10-14T16:04:53.298Z,994.87
2023-10-14T16:07:23.308Z,973.80
2023-10-14T16:09:53.524Z,877.37
2023-10-14T16:12:25.174Z,884.37
2023-10-14T16:14:55.312Z,894.20
2023-10-14T16:17:25.354Z,884.33
2023-10-14T16:19:55.425Z,898.27
2023-10-14T16:22:27.104Z,825.80
2023-10-14T16:24:56.970Z,878.47
2023-10-14T16:27:28.368Z,811.97
2023-10-14T16:29:58.405Z,795.83
2023-10-14T16:32:28.861Z,787.27
2023-10-14T16:35:00.756Z,872.60
2023-10-14T16:37:30.618Z,758.27
2023-10-14T16:40:00.505Z,793.10
2023-10-14T16:42:31.660Z,904.23
2023-10-14T16:45:01.856Z,882.13
2023-10-14T16:47:31.753Z,785.47
2023-10-14T16:50:02.424Z,812.03
2023-10-14T16:52:32.431Z,799.30
2023-10-14T16:55:04.325Z,755.20
2023-10-14T16:57:35.468Z,783.80
2023-10-14T17:00:10.396Z,772.03
2023-10-14T17:02:41.295Z,750.37
2023-10-14T17:05:14.005Z,738.67
2023-10-14T17:07:44.352Z,737.67
2023-10-14T17:10:15.478Z,764.43
2023-10-14T17:12:50.092Z,749.23
2023-10-14T17:15:20.467Z,690.80
2023-10-14T17:17:51.803Z,656.10
2023-10-14T17:20:23.227Z,654.70
2023-10-14T17:22:55.672Z,489.07
2023-10-14T17:25:28.335Z,393.37
2023-10-14T17:28:01.165Z,500.07
2023-10-14T17:30:33.074Z,493.17
2023-10-14T17:33:04.337Z,411.77
2023-10-14T17:35:34.424Z,437.30
2023-10-14T17:38:06.194Z,491.90
2023-10-14T17:40:40.228Z,457.00
2023-10-14T17:43:12.423Z,466.37
2023-10-14T17:45:42.897Z,431.67
2023-10-14T17:48:12.897Z,364.83
2023-10-14T17:50:43.371Z,366.77
2023-10-14T17:53:16.743Z,418.17
2023-10-14T17:55:47.495Z,231.57
2023-10-14T17:58:19.218Z,295.50
2023-10-14T18:00:49.297Z,265.87
2023-10-14T18:03:21.013Z,183.50
2023-10-14T18:05:51.336Z,323.63
2023-10-14T18:08:21.831Z,212.10
2023-10-14T18:10:54.670Z,174.33
2023-10-14T18:13:28.588Z,190.80
2023-10-14T18:15:59.237Z,204.73
2023-10-14T18:18:29.734Z,326.00
2023-10-14T18:21:00.241Z,474.10
2023-10-14T18:23:30.061Z,413.73
2023-10-14T18:26:08.891Z,403.30
2023-10-14T18:28:40.745Z,623.40
2023-10-14T18:31:11.780Z,717.27
2023-10-14T18:33:42.315Z,596.83
2023-10-14T18:36:12.972Z,675.20
2023-10-14T18:38:43.070Z,565.60
2023-10-14T18:41:13.818Z,630.77
2023-10-14T18:43:45.290Z,669.50
2023-10-14T18:46:20.531Z,669.50
2023-10-14T18:48:54.015Z,544.70
2023-10-14T18:51:24.072Z,519.97
2023-10-14T18:53:55.002Z,540.23
2023-10-14T18:56:26.431Z,600.63
2023-10-14T18:58:57.918Z,634.47
2023-10-14T19:01:28.239Z,686.53
2023-10-14T19:04:00.731Z,643.17
2023-10-14T19:06:31.536Z,655.30
2023-10-14T19:09:04.598Z,675.97
2023-10-14T19:11:36.285Z,504.77
2023-10-14T19:14:08.387Z,493.60
2023-10-14T19:16:39.401Z,618.17
2023-10-14T19:19:09.364Z,540.47
2023-10-14T19:21:39.245Z,457.67
2023-10-14T19:24:09.676Z,554.17
2023-10-14T19:26:39.457Z,643.40
2023-10-14T19:29:11.197Z,479.90
2023-10-14T19:31:41.148Z,456.90
2023-10-14T19:34:11.248Z,616.33
2023-10-14T19:36:41.114Z,527.33
2023-10-14T19:39:11.178Z,561.53
2023-10-14T19:41:40.957Z,638.13
2023-10-14T19:44:12.096Z,639.37
2023-10-14T19:46:41.996Z,649.73
2023-10-14T19:49:12.123Z,645.40
2023-10-14T19:51:42.572Z,628.57
2023-10-14T19:54:13.249Z,705.63
2023-10-14T19:56:43.071Z,712.23
2023-10-14T19:59:14.285Z,712.93
2023-10-14T20:01:44.735Z,476.17
2023-10-14T20:04:14.741Z,316.50
2023-10-14T20:06:45.544Z,187.20
2023-10-14T20:09:15.314Z,204.60
2023-10-14T20:11:45.141Z,138.00
2023-10-14T20:14:16.270Z,299.63
2023-10-14T20:16:48.841Z,472.97
2023-10-14T20:19:20.252Z,525.47
2023-10-14T20:21:52.692Z,614.27
2023-10-14T20:24:22.911Z,654.53
2023-10-14T20:26:52.853Z,686.80
2023-10-14T20:29:24.831Z,682.17
2023-10-14T20:31:57.430Z,646.03
2023-10-14T20:34:27.513Z,499.63
2023-10-14T20:36:58.612Z,394.07
2023-10-14T20:39:30.261Z,287.73
2023-10-14T20:42:02.344Z,47.43
2023-10-14T20:44:34.210Z,15.37
2023-10-14T20:47:04.050Z,56.40
2023-10-14T20:49:33.894Z,35.33
2023-10-14T20:52:05.288Z,38.13
2023-10-14T20:54:35.149Z,151.60
2023-10-14T20:57:08.901Z,300.87
2023-10-14T20:59:40.669Z,352.17
2023-10-14T21:02:11.108Z,439.83
2023-10-14T21:04:40.994Z,477.27
2023-10-14T21:07:12.289Z,347.70
2023-10-14T21:09:42.214Z,194.83
2023-10-14T21:12:12.037Z,155.47
2023-10-14T21:14:44.403Z,180.63
2023-10-14T21:17:14.276Z,180.10
2023-10-14T21:19:44.572Z,164.33
2023-10-14T21:22:14.589Z,142.03
2023-10-14T21:24:44.464Z,148.57
2023-10-14T21:27:17.418Z,52.20
2023-10-14T21:29:48.644Z,54.03
2023-10-14T21:32:18.513Z,63.77
2023-10-14T21:34:48.732Z,102.60
2023-10-14T21:37:19.448Z,167.33
2023-10-14T21:39:49.230Z,76.53
2023-10-14T21:42:19.665Z,57.07
2023-10-14T21:44:50.941Z,123.17
2023-10-14T21:47:20.774Z,137.80
2023-10-14T21:49:51.234Z,96.20
2023-10-14T21:52:23.019Z,72.03
2023-10-14T21:54:53.121Z,92.93
2023-10-14T21:57:23.010Z,34.03
2023-10-14T21:59:54.634Z,81.67
2023-10-14T22:02:24.863Z,29.73
2023-10-14T22:04:57.904Z,25.77
2023-10-14T22:07:27.976Z,60.77
2023-10-14T22:09:58.586Z,104.20
2023-10-14T22:12:29.619Z,77.13
2023-10-14T22:15:00.821Z,82.67
2023-10-14T22:17:30.669Z,108.17
2023-10-14T22:20:01.001Z,80.67
2023-10-14T22:22:31.259Z,103.70
2023-10-14T22:25:01.047Z,133.17
2023-10-14T22:27:30.820Z,36.47
2023-10-14T22:30:02.181Z,65.10
2023-10-14T22:32:32.026Z,33.07
2023-10-14T22:35:01.942Z,73.13
2023-10-14T22:37:36.968Z,34.97
2023-10-14T22:40:15.882Z,20.83
2023-10-14T22:42:48.109Z,46.47
2023-10-14T22:45:21.380Z,105.60
2023-10-14T22:47:52.263Z,93.53
2023-10-14T22:50:23.508Z,107.03
2023-10-14T22:52:54.322Z,120.50
2023-10-14T22:55:28.024Z,135.40
2023-10-14T22:57:58.715Z,114.53
2023-10-14T23:00:30.882Z,53.47
2023-10-14T23:03:00.987Z,79.60
2023-10-14T23:05:31.613Z,140.00
2023-10-14T23:08:02.308Z,124.33
2023-10-14T23:10:33.010Z,69.20
2023-10-14T23:13:03.763Z,54.80
2023-10-14T23:15:35.731Z,137.57
2023-10-14T23:18:06.064Z,154.80
2023-10-14T23:20:36.594Z,271.33
2023-10-14T23:23:07.347Z,288.27
2023-10-14T23:25:37.316Z,246.00
2023-10-14T23:28:08.149Z,285.27
2023-10-14T23:30:39.982Z,295.57
2023-10-14T23:33:09.893Z,320.37
2023-10-14T23:35:41.540Z,361.53
2023-10-14T23:38:15.227Z,405.20
2023-10-14T23:40:45.204Z,325.60
2023-10-14T23:43:15.075Z,400.40
2023-10-14T23:45:47.374Z,467.70
2023-10-14T23:48:17.362Z,409.63
2023-10-14T23:50:47.227Z,394.30
2023-10-14T23:53:17.445Z,453.17
2023-10-14T23:55:47.260Z,422.13
2023-10-14T23:58:17.080Z,402.60
